Airport Name : Portoroz

Other Name : Portoroz

ICAO : LJPZ

IATA : POW

FAA :

Latitude : 45.473353

Longitude : 13.614978

Country : Slovenia

Local Date and Time : 17 Jun 2024 02:37

 

TAF (Terminal Aerodrome Forecast)

TAF LJPZ 162300Z 1700/1709 12007KT CAVOK

 

METAR (METeorological Aerodrome Report)

LJPZ 170030Z AUTO 12007KT 9999 NCD 16/13 Q1014

LJPZ 170000Z AUTO 12007KT 9999 NCD 16/13 Q1014

LJPZ 162330Z AUTO 11006KT 9999 NCD 17/13 Q1014

LJPZ 162300Z AUTO 12006KT 9999 NCD 17/13 Q1014

LJPZ 162230Z AUTO 12007KT 9999 NCD 17/14 Q1013

LJPZ 162200Z AUTO 12005KT 9999 NCD 17/14 Q1013

LJPZ 162130Z AUTO 12007KT 9999 NCD 18/13 Q1013

LJPZ 162100Z AUTO 12006KT 9999 NCD 18/14 Q1013